createdAt,value
2023-05-14T00:00:57.427Z,5.10
2023-05-14T00:03:24.072Z,5.05
2023-05-14T00:05:50.865Z,5.10
2023-05-14T00:08:17.349Z,5.18
2023-05-14T00:10:43.860Z,4.95
2023-05-14T00:13:10.719Z,6.50
2023-05-14T00:15:37.335Z,6.38
2023-05-14T00:18:04.089Z,6.35
2023-05-14T00:20:30.959Z,9.57
2023-05-14T00:22:57.446Z,6.80
2023-05-14T00:25:23.968Z,5.90
2023-05-14T00:27:50.417Z,6.35
2023-05-14T00:30:16.952Z,7.57
2023-05-14T00:32:43.620Z,5.40
2023-05-14T00:35:10.195Z,4.78
2023-05-14T00:37:37.844Z,5.10
2023-05-14T00:40:06.804Z,5.05
2023-05-14T00:42:33.435Z,5.18
2023-05-14T00:45:00.453Z,4.75
2023-05-14T00:47:27.468Z,5.90
2023-05-14T00:49:54.441Z,5.22
2023-05-14T00:52:21.615Z,6.68
2023-05-14T00:54:49.137Z,5.97
2023-05-14T00:57:15.605Z,5.95
2023-05-14T00:59:42.715Z,5.15
2023-05-14T01:02:09.515Z,6.78
2023-05-14T01:04:36.490Z,6.05
2023-05-14T01:07:14.761Z,6.30
2023-05-14T01:09:52.476Z,6.90
2023-05-14T01:12:40.534Z,6.75
2023-05-14T01:15:12.622Z,6.82
2023-05-14T01:17:46.471Z,11.20
2023-05-14T01:20:13.496Z,6.70
2023-05-14T01:22:40.060Z,7.15
2023-05-14T01:25:07.225Z,6.85
2023-05-14T01:27:55.759Z,7.93
2023-05-14T01:30:29.924Z,6.13
2023-05-14T01:33:00.013Z,6.88
2023-05-14T01:35:28.865Z,6.15
2023-05-14T01:38:11.014Z,5.97
2023-05-14T01:40:38.326Z,8.32
2023-05-14T01:43:05.809Z,7.13
2023-05-14T01:45:35.682Z,8.52
2023-05-14T01:48:02.374Z,6.95
2023-05-14T01:50:28.880Z,7.97
2023-05-14T01:52:56.526Z,7.07
2023-05-14T01:55:26.781Z,6.53
2023-05-14T01:57:53.771Z,7.13
2023-05-14T02:00:22.309Z,6.82
2023-05-14T02:02:48.953Z,5.97
2023-05-14T02:05:15.554Z,6.93
2023-05-14T02:07:42.103Z,7.00
2023-05-14T02:10:09.194Z,7.60
2023-05-14T02:12:35.682Z,7.57
2023-05-14T02:15:03.765Z,6.75
2023-05-14T02:17:30.364Z,7.72
2023-05-14T02:19:57.027Z,7.20
2023-05-14T02:22:23.542Z,6.97
2023-05-14T02:24:51.333Z,8.38
2023-05-14T02:27:17.874Z,7.10
2023-05-14T02:29:44.689Z,6.38
2023-05-14T02:32:11.168Z,7.53
2023-05-14T02:34:38.630Z,7.25
2023-05-14T02:37:05.303Z,8.13
2023-05-14T02:39:31.828Z,7.25
2023-05-14T02:41:58.279Z,8.77
2023-05-14T02:44:24.982Z,9.02
2023-05-14T04:04:02.599Z,9.98
2023-05-14T04:06:29.300Z,9.25
2023-05-14T04:08:55.731Z,8.93
2023-05-14T04:11:22.267Z,8.48
2023-05-14T04:13:48.705Z,9.10
2023-05-14T04:16:15.242Z,9.18
2023-05-14T04:18:41.889Z,9.25
2023-05-14T04:21:08.478Z,8.57
2023-05-14T04:23:35.836Z,8.80
2023-05-14T04:26:02.321Z,8.73
2023-05-14T04:28:28.788Z,8.48
2023-05-14T04:30:55.452Z,8.98
2023-05-14T04:33:21.940Z,10.18
2023-05-14T04:35:48.465Z,10.73
2023-05-14T04:38:15.463Z,9.18
2023-05-14T04:40:42.823Z,9.65
2023-05-14T04:43:09.727Z,8.23
2023-05-14T04:45:36.329Z,8.85
2023-05-14T04:48:04.225Z,8.05
2023-05-14T04:50:30.766Z,7.20
2023-05-14T04:52:57.226Z,8.15
2023-05-14T04:55:23.843Z,8.50
2023-05-14T04:57:50.315Z,8.10
2023-05-14T05:00:17.576Z,7.10
2023-05-14T05:02:44.155Z,9.15
2023-05-14T05:05:10.926Z,7.32
2023-05-14T05:07:37.382Z,7.60
2023-05-14T05:10:04.374Z,9.38
2023-05-14T05:12:30.827Z,9.23
2023-05-14T05:14:57.831Z,6.55
2023-05-14T05:17:25.286Z,7.20
2023-05-14T05:19:52.557Z,6.60
2023-05-14T05:22:20.158Z,7.35
2023-05-14T05:24:48.572Z,7.00
2023-05-14T05:27:16.547Z,7.97
2023-05-14T05:29:44.345Z,6.70
2023-05-14T05:32:11.052Z,6.28
2023-05-14T05:34:37.612Z,7.38
2023-05-14T05:37:05.906Z,6.10
2023-05-14T05:39:34.935Z,6.28
2023-05-14T05:42:02.603Z,6.43
2023-05-14T05:44:29.178Z,8.48
2023-05-14T05:46:57.498Z,6.28
2023-05-14T05:49:24.177Z,5.45
2023-05-14T05:51:50.781Z,6.30
2023-05-14T05:54:17.308Z,7.65
2023-05-14T05:56:45.821Z,4.88
2023-05-14T05:59:12.246Z,5.85
2023-05-14T06:01:40.667Z,5.57
2023-05-14T06:04:07.191Z,5.53
2023-05-14T06:06:33.663Z,5.85
2023-05-14T06:09:01.792Z,6.72
2023-05-14T06:11:28.283Z,5.13
2023-05-14T06:13:54.986Z,5.78
2023-05-14T06:16:21.518Z,5.40
2023-05-14T06:18:48.780Z,4.72
2023-05-14T06:21:15.305Z,4.85
2023-05-14T06:23:43.366Z,5.97
2023-05-14T06:26:09.995Z,7.20
2023-05-14T06:28:36.635Z,5.63
2023-05-14T06:31:03.469Z,6.60
2023-05-14T06:33:31.284Z,5.20
2023-05-14T06:36:03.463Z,5.55
2023-05-14T06:38:29.950Z,5.80
2023-05-14T06:40:56.488Z,6.10
2023-05-14T06:43:24.153Z,5.78
2023-05-14T06:45:51.723Z,5.97
2023-05-14T06:48:19.389Z,6.63
2023-05-14T06:50:48.052Z,5.90
2023-05-14T06:53:15.314Z,6.47
2023-05-14T06:55:42.985Z,6.05
2023-05-14T06:58:09.725Z,6.45
2023-05-14T07:00:36.293Z,7.40
2023-05-14T07:03:02.878Z,6.78
2023-05-14T07:05:29.561Z,7.00
2023-05-14T07:07:56.088Z,5.20
2023-05-14T07:10:23.151Z,6.97
2023-05-14T07:12:49.956Z,5.90
2023-05-14T07:15:16.606Z,5.95
2023-05-14T07:17:43.116Z,5.57
2023-05-14T07:20:10.267Z,6.05
2023-05-14T07:22:36.827Z,5.32
2023-05-14T07:25:03.565Z,5.82
2023-05-14T07:27:30.109Z,5.22
2023-05-14T07:29:57.706Z,5.97
2023-05-14T07:32:25.400Z,5.72
2023-05-14T07:34:51.949Z,5.43
2023-05-14T07:37:18.877Z,5.45
2023-05-14T07:39:45.636Z,5.57
2023-05-14T07:42:19.388Z,5.80
2023-05-14T07:44:51.947Z,6.55
2023-05-14T07:47:18.593Z,6.32
2023-05-14T07:49:45.148Z,4.90
2023-05-14T07:52:11.587Z,6.13
2023-05-14T07:54:39.227Z,5.93
2023-05-14T07:57:05.886Z,5.75
2023-05-14T07:59:32.396Z,8.73
2023-05-14T08:01:58.953Z,5.40
2023-05-14T08:04:26.399Z,5.90
2023-05-14T08:06:53.000Z,6.50
2023-05-14T08:09:19.478Z,6.28
2023-05-14T08:11:45.919Z,9.88
2023-05-14T08:14:12.447Z,8.45
2023-05-14T08:16:39.169Z,5.35
2023-05-14T08:19:05.848Z,5.82
2023-05-14T08:21:33.184Z,6.20
2023-05-14T08:24:00.883Z,5.40
2023-05-14T08:26:27.476Z,5.75
2023-05-14T08:28:54.871Z,5.30
2023-05-14T08:31:22.527Z,8.10
2023-05-14T08:33:49.178Z,5.07
2023-05-14T08:36:16.508Z,7.13
2023-05-14T08:38:44.183Z,5.25
2023-05-14T08:41:12.062Z,4.97
2023-05-14T08:43:46.025Z,9.68
2023-05-14T08:46:14.947Z,5.65
2023-05-14T08:48:43.213Z,4.78
2023-05-14T08:51:10.074Z,4.82
2023-05-14T08:53:38.218Z,7.72
2023-05-14T08:56:06.264Z,7.15
2023-05-14T08:58:32.753Z,6.22
2023-05-14T09:00:59.575Z,5.20
2023-05-14T09:03:26.362Z,4.38
2023-05-14T09:05:53.921Z,4.40
2023-05-14T09:08:20.845Z,4.18
2023-05-14T09:10:47.385Z,4.00
2023-05-14T09:13:14.513Z,5.07
2023-05-14T09:15:41.550Z,4.00
2023-05-14T09:18:08.223Z,6.38
2023-05-14T09:20:34.899Z,3.80
2023-05-14T09:23:01.737Z,5.63
2023-05-14T09:25:32.071Z,4.38
2023-05-14T09:27:59.134Z,6.07
2023-05-14T09:30:29.062Z,6.03
2023-05-14T09:32:55.666Z,4.10
2023-05-14T09:35:25.452Z,4.18
2023-05-14T09:37:54.311Z,4.80
2023-05-14T09:40:23.999Z,4.68
2023-05-14T09:42:50.956Z,4.25
2023-05-14T09:45:18.090Z,4.53
2023-05-14T09:47:45.352Z,3.63
2023-05-14T09:50:12.357Z,4.75
2023-05-14T09:52:39.438Z,4.82
2023-05-14T09:55:06.568Z,7.93
2023-05-14T09:57:33.642Z,5.18
2023-05-14T10:00:00.374Z,5.53
2023-05-14T10:02:37.841Z,5.13
2023-05-14T10:05:06.455Z,4.80
2023-05-14T10:07:46.757Z,3.88
2023-05-14T10:10:19.585Z,8.43
2023-05-14T10:13:04.228Z,5.47
2023-05-14T10:15:37.082Z,4.30
2023-05-14T10:18:13.046Z,3.40
2023-05-14T10:20:41.395Z,4.57
2023-05-14T10:23:07.917Z,7.25
2023-05-14T10:25:36.551Z,3.83
2023-05-14T10:28:04.571Z,4.85
2023-05-14T10:30:33.060Z,5.05
2023-05-14T10:33:07.565Z,4.85
2023-05-14T10:35:52.542Z,4.25
2023-05-14T10:38:23.208Z,4.35
2023-05-14T10:40:51.619Z,4.78
2023-05-14T10:43:20.404Z,3.00
2023-05-14T10:45:47.137Z,3.83
2023-05-14T10:48:14.390Z,3.78
2023-05-14T10:50:42.032Z,5.22
2023-05-14T10:53:13.126Z,4.22
2023-05-14T10:55:40.279Z,3.50
2023-05-14T10:58:07.982Z,5.28
2023-05-14T11:00:35.888Z,3.72
2023-05-14T11:03:05.330Z,4.28
2023-05-14T11:05:33.649Z,8.38
2023-05-14T11:08:06.390Z,16.38
2023-05-14T11:10:36.169Z,24.83
2023-05-14T11:13:02.782Z,23.52
2023-05-14T11:15:29.364Z,25.25
2023-05-14T11:17:56.035Z,24.00
2023-05-14T11:20:22.943Z,25.17
2023-05-14T11:22:51.624Z,29.67
2023-05-14T11:25:18.889Z,29.10
2023-05-14T11:27:47.204Z,27.50
2023-05-14T11:30:17.612Z,27.85
2023-05-14T11:32:46.171Z,29.70
2023-05-14T11:35:13.902Z,27.85
2023-05-14T11:37:40.763Z,31.15
2023-05-14T11:40:14.184Z,27.75
2023-05-14T11:42:40.789Z,30.00
2023-05-14T11:45:11.156Z,26.80
2023-05-14T11:47:37.905Z,24.58
2023-05-14T11:50:04.954Z,21.55
2023-05-14T11:52:37.794Z,19.23
2023-05-14T11:55:04.850Z,19.33
2023-05-14T11:57:31.547Z,18.75
2023-05-14T11:59:58.625Z,21.02
2023-05-14T12:02:29.180Z,22.25
2023-05-14T12:04:55.817Z,18.48
2023-05-14T12:07:22.309Z,18.02
2023-05-14T12:09:50.114Z,22.00
2023-05-14T12:12:19.793Z,17.58
2023-05-14T12:14:46.961Z,15.70
2023-05-14T12:17:19.789Z,15.05
2023-05-14T12:19:48.765Z,16.92
2023-05-14T12:22:22.270Z,14.80
2023-05-14T12:24:57.235Z,18.02
2023-05-14T12:27:24.957Z,20.75
2023-05-14T12:30:19.199Z,19.38
2023-05-14T12:32:52.053Z,21.63
2023-05-14T12:35:19.050Z,21.25
2023-05-14T12:37:45.667Z,23.17
2023-05-14T12:40:12.368Z,17.80
2023-05-14T12:42:38.821Z,17.25
2023-05-14T12:45:08.085Z,13.35
2023-05-14T12:47:35.085Z,7.78
2023-05-14T12:50:02.069Z,5.72
2023-05-14T12:52:37.524Z,5.30
2023-05-14T12:55:05.427Z,6.15
2023-05-14T12:57:32.251Z,5.22
2023-05-14T12:59:58.928Z,5.15
2023-05-14T13:02:25.576Z,7.38
2023-05-14T13:04:52.076Z,6.45
2023-05-14T13:07:18.677Z,6.45
2023-05-14T13:09:45.368Z,9.18
2023-05-14T13:12:12.028Z,8.45
2023-05-14T13:14:38.480Z,10.68
2023-05-14T13:17:05.679Z,9.13
2023-05-14T13:19:32.327Z,8.77
2023-05-14T13:21:58.766Z,7.78
2023-05-14T13:24:25.576Z,9.77
2023-05-14T13:26:52.041Z,9.70
2023-05-14T13:29:18.565Z,8.68
2023-05-14T13:31:45.050Z,8.57
2023-05-14T13:34:13.018Z,8.80
2023-05-14T13:36:39.789Z,7.22
2023-05-14T13:39:07.104Z,7.78
2023-05-14T13:41:35.874Z,8.98
2023-05-14T13:44:02.334Z,7.93
2023-05-14T13:46:29.208Z,28.65
2023-05-14T13:48:55.935Z,10.82
2023-05-14T13:51:23.479Z,10.85
2023-05-14T13:53:50.391Z,7.57
2023-05-14T13:56:16.918Z,8.77
2023-05-14T13:58:43.408Z,8.82
2023-05-14T14:01:09.883Z,8.38
2023-05-14T14:03:36.417Z,11.30
2023-05-14T14:06:03.355Z,9.20
2023-05-14T14:08:31.090Z,8.93
2023-05-14T14:10:57.696Z,10.02
2023-05-14T14:13:24.347Z,9.50
2023-05-14T14:15:51.277Z,11.25
2023-05-14T14:18:17.932Z,10.77
2023-05-14T14:20:44.548Z,11.23
2023-05-14T14:23:11.012Z,9.10
2023-05-14T14:25:37.593Z,10.35
2023-05-14T14:28:04.157Z,9.15
2023-05-14T14:30:30.765Z,9.60
2023-05-14T14:32:57.540Z,7.28
2023-05-14T14:35:24.417Z,7.47
2023-05-14T14:37:53.650Z,6.10
2023-05-14T14:40:20.492Z,6.90
2023-05-14T14:42:46.969Z,8.82
2023-05-14T14:45:13.609Z,7.75
2023-05-14T14:47:44.987Z,9.30
2023-05-14T14:50:14.775Z,10.05
2023-05-14T14:52:45.611Z,8.00
2023-05-14T14:55:12.990Z,10.52
2023-05-14T14:57:39.656Z,11.18
2023-05-14T15:00:07.005Z,9.48
2023-05-14T15:02:33.692Z,12.50
2023-05-14T15:05:00.353Z,9.68
2023-05-14T15:07:26.798Z,8.02
2023-05-14T15:09:53.317Z,6.72
2023-05-14T15:12:19.899Z,7.28
2023-05-14T15:14:46.497Z,7.18
2023-05-14T15:17:12.984Z,10.90
2023-05-14T15:19:39.457Z,11.13
2023-05-14T15:22:06.114Z,7.57
2023-05-14T15:24:32.661Z,9.70
2023-05-14T15:26:59.147Z,8.13
2023-05-14T15:29:25.767Z,6.78
2023-05-14T15:31:52.379Z,8.65
2023-05-14T15:34:18.843Z,6.25
2023-05-14T15:36:45.406Z,9.88
2023-05-14T15:39:12.741Z,9.63
2023-05-14T15:41:39.249Z,7.40
2023-05-14T15:44:05.927Z,7.35
2023-05-14T15:46:32.475Z,6.40
2023-05-14T15:48:59.192Z,6.43
2023-05-14T15:51:26.905Z,8.93
2023-05-14T15:53:54.213Z,6.32
2023-05-14T15:56:22.286Z,6.20
2023-05-14T15:58:49.578Z,7.32
2023-05-14T16:01:16.166Z,7.97
2023-05-14T16:03:42.827Z,6.55
2023-05-14T16:06:09.776Z,6.07
2023-05-14T16:08:36.395Z,5.88
2023-05-14T16:11:05.509Z,5.82
2023-05-14T16:13:32.111Z,6.10
2023-05-14T16:15:59.543Z,6.70
2023-05-14T16:18:27.305Z,6.30
2023-05-14T16:20:53.825Z,5.65
2023-05-14T16:23:20.543Z,5.43
2023-05-14T16:25:47.214Z,7.70
2023-05-14T16:28:13.865Z,4.97
2023-05-14T16:30:40.406Z,6.20
2023-05-14T16:33:07.028Z,6.88
2023-05-14T16:35:33.910Z,6.15
2023-05-14T16:38:00.636Z,5.60
2023-05-14T16:40:27.153Z,6.10
2023-05-14T16:42:53.738Z,5.90
2023-05-14T16:45:20.642Z,5.07
2023-05-14T16:47:47.169Z,4.90
2023-05-14T16:50:13.882Z,5.72
2023-05-14T16:52:40.445Z,5.70
2023-05-14T16:55:07.264Z,6.40
2023-05-14T16:57:34.404Z,5.47
2023-05-14T17:00:01.307Z,6.90
2023-05-14T17:02:27.892Z,8.00
2023-05-14T17:04:55.306Z,5.60
2023-05-14T17:07:21.999Z,5.10
2023-05-14T17:09:49.007Z,5.10
2023-05-14T17:12:15.508Z,5.50
2023-05-14T17:14:43.136Z,8.30
2023-05-14T17:17:09.678Z,7.43
2023-05-14T17:19:37.252Z,7.50
2023-05-14T17:22:05.820Z,7.88
2023-05-14T17:24:35.519Z,7.68
2023-05-14T17:27:02.057Z,10.35
2023-05-14T17:29:30.707Z,9.95
2023-05-14T17:31:57.632Z,9.52
2023-05-14T17:34:24.415Z,9.02
2023-05-14T17:36:50.975Z,11.63
2023-05-14T17:39:17.612Z,11.90
2023-05-14T17:41:44.179Z,9.77
2023-05-14T17:44:13.118Z,10.75
2023-05-14T17:46:39.922Z,10.45
2023-05-14T17:49:06.429Z,9.32
2023-05-14T17:51:32.904Z,15.50
2023-05-14T17:53:59.614Z,13.60
2023-05-14T17:56:27.301Z,10.18
2023-05-14T17:58:53.734Z,12.48
2023-05-14T18:01:20.482Z,14.85
2023-05-14T18:03:47.461Z,13.07
2023-05-14T18:06:14.160Z,11.18
2023-05-14T18:08:41.019Z,16.98
2023-05-14T18:11:07.485Z,10.98
2023-05-14T18:13:37.135Z,12.63
2023-05-14T18:16:03.908Z,9.57
2023-05-14T18:18:31.290Z,12.00
2023-05-14T18:20:58.875Z,10.93
2023-05-14T18:23:25.406Z,11.90
2023-05-14T18:25:51.953Z,13.18
2023-05-14T18:28:18.961Z,10.25
2023-05-14T18:30:49.759Z,11.57
2023-05-14T18:33:16.407Z,11.10
2023-05-14T18:35:43.699Z,15.32
2023-05-14T18:38:11.783Z,9.23
2023-05-14T18:40:38.526Z,9.95
2023-05-14T18:43:05.084Z,13.00
2023-05-14T18:45:31.551Z,11.25
2023-05-14T18:47:58.281Z,10.95
2023-05-14T18:50:26.098Z,8.45
2023-05-14T18:52:52.551Z,9.40
2023-05-14T18:55:19.376Z,10.23
2023-05-14T18:57:46.254Z,11.15
2023-05-14T19:00:13.368Z,12.32
2023-05-14T19:02:39.952Z,13.95
2023-05-14T19:05:07.024Z,12.77
2023-05-14T19:07:33.678Z,13.73
2023-05-14T19:10:00.438Z,12.60
2023-05-14T19:12:27.588Z,10.68
2023-05-14T19:14:54.077Z,13.10
2023-05-14T19:17:20.770Z,12.95
2023-05-14T19:19:47.356Z,12.48
2023-05-14T19:22:13.940Z,12.35
2023-05-14T19:24:40.618Z,13.85
2023-05-14T19:27:08.077Z,15.18
2023-05-14T19:29:36.730Z,13.45
2023-05-14T19:32:04.560Z,11.48
2023-05-14T19:34:31.198Z,12.70
2023-05-14T19:36:57.681Z,11.30
2023-05-14T19:39:24.161Z,10.95
2023-05-14T19:41:50.725Z,10.90
2023-05-14T19:44:17.370Z,11.88
2023-05-14T19:46:44.009Z,11.48
2023-05-14T19:49:10.707Z,11.02
2023-05-14T19:51:37.248Z,10.80
2023-05-14T19:54:03.924Z,11.65
2023-05-14T19:56:30.402Z,10.52
2023-05-14T19:58:56.831Z,11.90
2023-05-14T20:01:23.417Z,12.07
2023-05-14T20:03:50.025Z,12.25
2023-05-14T20:06:17.468Z,11.30
2023-05-14T20:08:45.420Z,12.70
2023-05-14T20:11:12.199Z,13.32
2023-05-14T20:13:38.795Z,11.93
2023-05-14T20:16:05.817Z,11.93
2023-05-14T20:18:32.762Z,11.85
2023-05-14T20:20:59.298Z,13.23
2023-05-14T20:23:25.798Z,12.30
2023-05-14T20:25:52.396Z,11.68
2023-05-14T20:28:18.953Z,12.50
2023-05-14T20:30:46.130Z,15.48
2023-05-14T20:33:13.813Z,11.68
2023-05-14T20:35:43.619Z,10.07
2023-05-14T20:38:12.561Z,10.43
2023-05-14T20:40:39.537Z,10.50
2023-05-14T20:43:06.092Z,11.80
2023-05-14T20:45:32.698Z,13.48
2023-05-14T20:47:59.342Z,12.25
2023-05-14T20:50:27.710Z,16.25
2023-05-14T20:52:55.184Z,12.50
2023-05-14T20:55:21.927Z,14.40
2023-05-14T20:57:49.611Z,13.48
2023-05-14T21:00:16.955Z,16.35
2023-05-14T21:02:43.619Z,15.80
2023-05-14T21:05:10.465Z,13.95
2023-05-14T21:07:37.365Z,15.73
2023-05-14T21:10:04.553Z,15.70
2023-05-14T21:12:31.022Z,17.30
2023-05-14T21:14:57.464Z,16.55
2023-05-14T21:17:24.036Z,16.05
2023-05-14T21:19:50.539Z,18.20
2023-05-14T21:22:17.039Z,21.02
2023-05-14T21:24:43.548Z,20.95
2023-05-14T21:27:10.282Z,20.73
2023-05-14T21:29:36.728Z,20.83
2023-05-14T21:32:03.385Z,22.55
2023-05-14T21:34:31.245Z,23.63
2023-05-14T21:36:58.557Z,20.10
2023-05-14T21:39:25.033Z,23.45
2023-05-14T21:41:51.821Z,22.85
2023-05-14T21:44:18.317Z,20.63
2023-05-14T21:46:44.847Z,21.33
2023-05-14T21:49:11.378Z,20.83
2023-05-14T21:51:37.931Z,16.33
2023-05-14T21:54:04.721Z,19.73
2023-05-14T21:56:31.258Z,23.10
2023-05-14T21:58:57.769Z,21.00
2023-05-14T22:01:24.357Z,22.73
2023-05-14T22:03:50.842Z,23.30
2023-05-14T22:06:17.366Z,22.45
2023-05-14T22:08:43.818Z,22.30
2023-05-14T22:11:10.345Z,22.75
2023-05-14T22:13:40.928Z,22.00
2023-05-14T22:16:12.821Z,20.60
2023-05-14T22:18:40.381Z,21.52
2023-05-14T22:21:06.909Z,20.95
2023-05-14T22:23:33.796Z,19.23
2023-05-14T22:26:00.400Z,20.25
2023-05-14T22:28:26.966Z,19.42
2023-05-14T22:30:53.646Z,18.75
2023-05-14T22:33:20.257Z,20.65
2023-05-14T22:35:46.765Z,20.13
2023-05-14T22:38:13.955Z,24.10
2023-05-14T22:40:40.542Z,22.88
2023-05-14T22:43:07.135Z,20.20
2023-05-14T22:45:33.754Z,21.92
2023-05-14T22:48:00.522Z,18.52
2023-05-14T22:50:27.028Z,28.65
2023-05-14T22:52:53.531Z,32.33
2023-05-14T22:55:19.999Z,37.40
2023-05-14T22:57:46.492Z,33.50
2023-05-14T23:00:14.602Z,33.15
2023-05-14T23:02:41.132Z,34.63
2023-05-14T23:05:10.583Z,41.80
2023-05-14T23:07:37.370Z,40.15
2023-05-14T23:10:04.181Z,38.92
2023-05-14T23:12:30.610Z,44.83
2023-05-14T23:14:59.059Z,43.80
2023-05-14T23:17:25.825Z,47.88
2023-05-14T23:19:52.910Z,42.30
2023-05-14T23:22:19.453Z,45.20
2023-05-14T23:24:45.949Z,48.28
2023-05-14T23:27:12.406Z,43.50
2023-05-14T23:29:38.926Z,49.90
2023-05-14T23:32:05.787Z,54.00
2023-05-14T23:34:32.974Z,51.30
2023-05-14T23:36:59.656Z,48.17
2023-05-14T23:39:26.315Z,52.58
2023-05-14T23:41:52.796Z,53.22
2023-05-14T23:44:19.383Z,53.22
2023-05-14T23:46:46.488Z,51.97
2023-05-14T23:49:13.027Z,55.63
2023-05-14T23:51:39.599Z,50.30
2023-05-14T23:54:06.069Z,57.25
2023-05-14T23:56:32.745Z,54.28
2023-05-14T23:58:59.344Z,51.05
